sensor_id;sensor_type;location;lat;lon;timestamp;temperature;humidity
45012;DHT22;63444;48.148;11.542;2023-08-06T00:00:39;16.70;99.90
45012;DHT22;63444;48.148;11.542;2023-08-06T00:03:06;16.70;99.90
45012;DHT22;63444;48.148;11.542;2023-08-06T00:05:32;16.70;99.90
45012;DHT22;63444;48.148;11.542;2023-08-06T00:07:58;16.70;99.90
45012;DHT22;63444;48.148;11.542;2023-08-06T00:10:26;16.70;99.90
45012;DHT22;63444;48.148;11.542;2023-08-06T00:12:51;16.70;99.90
45012;DHT22;63444;48.148;11.542;2023-08-06T00:15:17;16.70;99.90
45012;DHT22;63444;48.148;11.542;2023-08-06T00:17:43;16.70;99.90
45012;DHT22;63444;48.148;11.542;2023-08-06T00:20:10;16.70;99.90
45012;DHT22;63444;48.148;11.542;2023-08-06T00:22:37;16.60;99.90
45012;DHT22;63444;48.148;11.542;2023-08-06T00:25:04;16.60;99.90
45012;DHT22;63444;48.148;11.542;2023-08-06T00:27:31;16.60;99.90
45012;DHT22;63444;48.148;11.542;2023-08-06T00:29:58;16.50;99.90
45012;DHT22;63444;48.148;11.542;2023-08-06T00:32:26;16.50;99.90
45012;DHT22;63444;48.148;11.542;2023-08-06T00:34:53;16.50;99.90
45012;DHT22;63444;48.148;11.542;2023-08-06T00:37:19;16.50;99.90
45012;DHT22;63444;48.148;11.542;2023-08-06T00:39:44;16.50;99.90
45012;DHT22;63444;48.148;11.542;2023-08-06T00:42:11;16.50;99.90
45012;DHT22;63444;48.148;11.542;2023-08-06T00:44:38;16.40;99.90
45012;DHT22;63444;48.148;11.542;2023-08-06T00:47:04;16.30;99.90
45012;DHT22;63444;48.148;11.542;2023-08-06T00:49:31;16.20;99.90
45012;DHT22;63444;48.148;11.542;2023-08-06T00:52:00;16.20;99.90
45012;DHT22;63444;48.148;11.542;2023-08-06T00:54:27;16.20;99.90
45012;DHT22;63444;48.148;11.542;2023-08-06T00:56:53;16.20;99.90
45012;DHT22;63444;48.148;11.542;2023-08-06T00:59:19;16.20;99.90
45012;DHT22;63444;48.148;11.542;2023-08-06T01:01:45;16.20;99.90
45012;DHT22;63444;48.148;11.542;2023-08-06T01:04:12;16.10;99.90
45012;DHT22;63444;48.148;11.542;2023-08-06T01:06:45;16.10;99.90
45012;DHT22;63444;48.148;11.542;2023-08-06T01:12:00;16.10;99.90
45012;DHT22;63444;48.148;11.542;2023-08-06T01:14:31;16.10;99.90
45012;DHT22;63444;48.148;11.542;2023-08-06T01:16:58;16.00;99.90
45012;DHT22;63444;48.148;11.542;2023-08-06T01:19:27;16.00;99.90
45012;DHT22;63444;48.148;11.542;2023-08-06T01:21:52;16.00;99.90
45012;DHT22;63444;48.148;11.542;2023-08-06T01:24:19;16.00;99.90
45012;DHT22;63444;48.148;11.542;2023-08-06T01:26:55;15.90;99.90
45012;DHT22;63444;48.148;11.542;2023-08-06T01:29:34;15.90;99.90
45012;DHT22;63444;48.148;11.542;2023-08-06T01:32:01;15.90;99.90
45012;DHT22;63444;48.148;11.542;2023-08-06T01:34:31;15.80;99.90
45012;DHT22;63444;48.148;11.542;2023-08-06T01:37:00;15.80;99.90
45012;DHT22;63444;48.148;11.542;2023-08-06T01:39:27;15.80;99.90
45012;DHT22;63444;48.148;11.542;2023-08-06T01:41:53;15.80;99.90
45012;DHT22;63444;48.148;11.542;2023-08-06T01:44:18;15.80;99.90
45012;DHT22;63444;48.148;11.542;2023-08-06T01:46:44;15.80;99.90
45012;DHT22;63444;48.148;11.542;2023-08-06T01:49:10;15.80;99.90
45012;DHT22;63444;48.148;11.542;2023-08-06T01:51:36;15.80;99.90
45012;DHT22;63444;48.148;11.542;2023-08-06T01:54:02;15.80;99.90
45012;DHT22;63444;48.148;11.542;2023-08-06T01:56:28;15.70;99.90
45012;DHT22;63444;48.148;11.542;2023-08-06T01:58:54;15.70;99.90
45012;DHT22;63444;48.148;11.542;2023-08-06T02:01:20;15.70;99.90
45012;DHT22;63444;48.148;11.542;2023-08-06T02:03:45;15.70;99.90
45012;DHT22;63444;48.148;11.542;2023-08-06T02:06:11;15.70;99.90
45012;DHT22;63444;48.148;11.542;2023-08-06T02:08:40;15.70;99.90
45012;DHT22;63444;48.148;11.542;2023-08-06T02:11:05;15.70;99.90
45012;DHT22;63444;48.148;11.542;2023-08-06T02:13:31;15.70;99.90
45012;DHT22;63444;48.148;11.542;2023-08-06T02:15:57;15.60;99.90
45012;DHT22;63444;48.148;11.542;2023-08-06T02:18:22;15.60;99.90
45012;DHT22;63444;48.148;11.542;2023-08-06T02:20:58;15.60;99.90
45012;DHT22;63444;48.148;11.542;2023-08-06T02:23:25;15.60;99.90
45012;DHT22;63444;48.148;11.542;2023-08-06T02:26:08;15.60;99.90
45012;DHT22;63444;48.148;11.542;2023-08-06T02:28:37;15.60;99.90
45012;DHT22;63444;48.148;11.542;2023-08-06T02:31:04;15.60;99.90
45012;DHT22;63444;48.148;11.542;2023-08-06T02:33:33;15.60;99.90
45012;DHT22;63444;48.148;11.542;2023-08-06T02:36:02;15.60;99.90
45012;DHT22;63444;48.148;11.542;2023-08-06T02:38:29;15.60;99.90
45012;DHT22;63444;48.148;11.542;2023-08-06T02:40:55;15.50;99.90
45012;DHT22;63444;48.148;11.542;2023-08-06T02:43:22;15.50;99.90
45012;DHT22;63444;48.148;11.542;2023-08-06T02:45:48;15.50;99.90
45012;DHT22;63444;48.148;11.542;2023-08-06T02:48:15;15.50;99.90
45012;DHT22;63444;48.148;11.542;2023-08-06T02:50:42;15.50;99.90
45012;DHT22;63444;48.148;11.542;2023-08-06T02:53:08;15.50;99.90
45012;DHT22;63444;48.148;11.542;2023-08-06T02:55:34;15.50;99.90
45012;DHT22;63444;48.148;11.542;2023-08-06T02:58:01;15.50;99.90
45012;DHT22;63444;48.148;11.542;2023-08-06T03:00:27;15.40;99.90
45012;DHT22;63444;48.148;11.542;2023-08-06T03:02:53;15.40;99.90
45012;DHT22;63444;48.148;11.542;2023-08-06T03:05:20;15.40;99.90
45012;DHT22;63444;48.148;11.542;2023-08-06T03:07:47;15.40;99.90
45012;DHT22;63444;48.148;11.542;2023-08-06T03:10:13;15.40;99.90
45012;DHT22;63444;48.148;11.542;2023-08-06T03:12:39;15.20;99.90
45012;DHT22;63444;48.148;11.542;2023-08-06T03:15:06;15.30;99.90
45012;DHT22;63444;48.148;11.542;2023-08-06T03:17:31;15.30;99.90
45012;DHT22;63444;48.148;11.542;2023-08-06T03:19:57;15.30;99.90
45012;DHT22;63444;48.148;11.542;2023-08-06T03:22:22;15.20;99.90
45012;DHT22;63444;48.148;11.542;2023-08-06T03:24:52;15.20;99.90
45012;DHT22;63444;48.148;11.542;2023-08-06T03:27:17;15.30;99.90
45012;DHT22;63444;48.148;11.542;2023-08-06T03:29:43;15.20;99.90
45012;DHT22;63444;48.148;11.542;2023-08-06T03:32:09;15.20;99.90
45012;DHT22;63444;48.148;11.542;2023-08-06T03:34:34;15.20;99.90
45012;DHT22;63444;48.148;11.542;2023-08-06T03:37:01;15.20;99.90
45012;DHT22;63444;48.148;11.542;2023-08-06T03:39:27;15.20;99.90
45012;DHT22;63444;48.148;11.542;2023-08-06T03:41:53;15.20;99.90
45012;DHT22;63444;48.148;11.542;2023-08-06T03:44:19;15.20;99.90
45012;DHT22;63444;48.148;11.542;2023-08-06T03:46:44;15.20;99.90
45012;DHT22;63444;48.148;11.542;2023-08-06T03:49:10;15.20;99.90
45012;DHT22;63444;48.148;11.542;2023-08-06T03:51:35;15.20;99.90
45012;DHT22;63444;48.148;11.542;2023-08-06T03:54:01;15.20;99.90
45012;DHT22;63444;48.148;11.542;2023-08-06T03:56:27;15.10;99.90
45012;DHT22;63444;48.148;11.542;2023-08-06T03:58:52;15.10;99.90
45012;DHT22;63444;48.148;11.542;2023-08-06T04:01:18;15.10;99.90
45012;DHT22;63444;48.148;11.542;2023-08-06T04:03:44;15.20;99.90
45012;DHT22;63444;48.148;11.542;2023-08-06T04:06:09;15.10;99.90
45012;DHT22;63444;48.148;11.542;2023-08-06T04:08:35;15.10;99.90
45012;DHT22;63444;48.148;11.542;2023-08-06T04:11:02;15.10;99.90
45012;DHT22;63444;48.148;11.542;2023-08-06T04:13:29;15.00;99.90
45012;DHT22;63444;48.148;11.542;2023-08-06T04:15:55;14.90;99.90
45012;DHT22;63444;48.148;11.542;2023-08-06T04:18:26;15.00;99.90
45012;DHT22;63444;48.148;11.542;2023-08-06T04:20:51;15.10;99.90
45012;DHT22;63444;48.148;11.542;2023-08-06T04:23:19;15.00;99.90
45012;DHT22;63444;48.148;11.542;2023-08-06T04:25:44;15.00;99.90
45012;DHT22;63444;48.148;11.542;2023-08-06T04:28:11;15.00;99.90
45012;DHT22;63444;48.148;11.542;2023-08-06T04:30:37;15.00;99.90
45012;DHT22;63444;48.148;11.542;2023-08-06T04:33:04;15.00;99.90
45012;DHT22;63444;48.148;11.542;2023-08-06T04:35:30;15.00;99.90
45012;DHT22;63444;48.148;11.542;2023-08-06T04:37:55;15.10;99.90
45012;DHT22;63444;48.148;11.542;2023-08-06T04:40:21;15.10;99.90
45012;DHT22;63444;48.148;11.542;2023-08-06T04:42:46;15.10;99.90
45012;DHT22;63444;48.148;11.542;2023-08-06T04:45:13;15.10;99.90
45012;DHT22;63444;48.148;11.542;2023-08-06T04:47:39;15.10;99.90
45012;DHT22;63444;48.148;11.542;2023-08-06T04:50:05;15.20;99.90
45012;DHT22;63444;48.148;11.542;2023-08-06T04:52:31;15.10;99.90
45012;DHT22;63444;48.148;11.542;2023-08-06T04:54:58;15.20;99.90
45012;DHT22;63444;48.148;11.542;2023-08-06T04:57:24;15.10;99.90
45012;DHT22;63444;48.148;11.542;2023-08-06T04:59:50;15.30;99.90
45012;DHT22;63444;48.148;11.542;2023-08-06T05:02:16;15.30;99.90
45012;DHT22;63444;48.148;11.542;2023-08-06T05:04:41;15.30;99.90
45012;DHT22;63444;48.148;11.542;2023-08-06T05:07:07;15.30;99.90
45012;DHT22;63444;48.148;11.542;2023-08-06T05:09:32;15.30;99.90
45012;DHT22;63444;48.148;11.542;2023-08-06T05:12:00;15.30;99.90
45012;DHT22;63444;48.148;11.542;2023-08-06T05:14:28;15.30;99.90
45012;DHT22;63444;48.148;11.542;2023-08-06T05:16:53;15.30;99.90
45012;DHT22;63444;48.148;11.542;2023-08-06T05:19:19;15.30;99.90
45012;DHT22;63444;48.148;11.542;2023-08-06T05:21:44;15.40;99.90
45012;DHT22;63444;48.148;11.542;2023-08-06T05:24:13;15.40;99.90
45012;DHT22;63444;48.148;11.542;2023-08-06T05:26:38;15.40;99.90
45012;DHT22;63444;48.148;11.542;2023-08-06T05:29:04;15.40;99.90
45012;DHT22;63444;48.148;11.542;2023-08-06T05:31:31;15.40;99.90
45012;DHT22;63444;48.148;11.542;2023-08-06T05:33:57;15.40;99.90
45012;DHT22;63444;48.148;11.542;2023-08-06T05:36:22;15.40;99.90
45012;DHT22;63444;48.148;11.542;2023-08-06T05:38:49;15.40;99.90
45012;DHT22;63444;48.148;11.542;2023-08-06T05:41:15;15.40;99.90
45012;DHT22;63444;48.148;11.542;2023-08-06T05:43:41;15.40;99.90
45012;DHT22;63444;48.148;11.542;2023-08-06T05:46:06;15.40;99.90
45012;DHT22;63444;48.148;11.542;2023-08-06T05:48:33;15.40;99.90
45012;DHT22;63444;48.148;11.542;2023-08-06T05:51:01;15.50;99.90
45012;DHT22;63444;48.148;11.542;2023-08-06T05:53:27;15.50;99.90
45012;DHT22;63444;48.148;11.542;2023-08-06T05:55:54;15.40;99.90
45012;DHT22;63444;48.148;11.542;2023-08-06T05:58:20;15.50;99.90
45012;DHT22;63444;48.148;11.542;2023-08-06T06:00:46;15.50;99.90
45012;DHT22;63444;48.148;11.542;2023-08-06T06:03:13;15.50;99.90
45012;DHT22;63444;48.148;11.542;2023-08-06T06:05:42;15.60;99.90
45012;DHT22;63444;48.148;11.542;2023-08-06T06:08:07;15.60;99.90
45012;DHT22;63444;48.148;11.542;2023-08-06T06:10:33;15.60;99.90
45012;DHT22;63444;48.148;11.542;2023-08-06T06:13:00;15.70;99.90
45012;DHT22;63444;48.148;11.542;2023-08-06T06:15:26;15.70;99.90
45012;DHT22;63444;48.148;11.542;2023-08-06T06:17:51;15.80;99.90
45012;DHT22;63444;48.148;11.542;2023-08-06T06:20:17;15.90;99.90
45012;DHT22;63444;48.148;11.542;2023-08-06T06:22:43;15.90;99.90
45012;DHT22;63444;48.148;11.542;2023-08-06T06:25:08;16.00;99.90
45012;DHT22;63444;48.148;11.542;2023-08-06T06:27:38;16.00;99.90
45012;DHT22;63444;48.148;11.542;2023-08-06T06:30:05;16.10;99.90
45012;DHT22;63444;48.148;11.542;2023-08-06T06:32:31;16.10;99.90
45012;DHT22;63444;48.148;11.542;2023-08-06T06:35:00;16.10;99.90
45012;DHT22;63444;48.148;11.542;2023-08-06T06:37:27;16.20;99.90
45012;DHT22;63444;48.148;11.542;2023-08-06T06:39:53;16.30;99.90
45012;DHT22;63444;48.148;11.542;2023-08-06T06:42:18;16.40;99.90
45012;DHT22;63444;48.148;11.542;2023-08-06T06:44:44;16.40;99.90
45012;DHT22;63444;48.148;11.542;2023-08-06T06:47:10;16.50;99.90
45012;DHT22;63444;48.148;11.542;2023-08-06T06:49:36;16.60;99.90
45012;DHT22;63444;48.148;11.542;2023-08-06T06:52:02;16.60;99.90
45012;DHT22;63444;48.148;11.542;2023-08-06T06:54:31;16.80;99.90
45012;DHT22;63444;48.148;11.542;2023-08-06T06:56:57;16.80;99.90
45012;DHT22;63444;48.148;11.542;2023-08-06T06:59:23;17.00;99.90
45012;DHT22;63444;48.148;11.542;2023-08-06T07:01:49;17.20;99.90
45012;DHT22;63444;48.148;11.542;2023-08-06T07:04:16;17.30;99.90
45012;DHT22;63444;48.148;11.542;2023-08-06T07:06:44;17.50;99.90
45012;DHT22;63444;48.148;11.542;2023-08-06T07:09:09;18.10;99.90
45012;DHT22;63444;48.148;11.542;2023-08-06T07:11:35;18.90;99.90
45012;DHT22;63444;48.148;11.542;2023-08-06T07:14:01;19.70;99.90
45012;DHT22;63444;48.148;11.542;2023-08-06T07:16:27;20.10;99.90
45012;DHT22;63444;48.148;11.542;2023-08-06T07:18:57;20.20;99.90
45012;DHT22;63444;48.148;11.542;2023-08-06T07:21:23;20.00;99.90
45012;DHT22;63444;48.148;11.542;2023-08-06T07:23:48;19.80;99.90
45012;DHT22;63444;48.148;11.542;2023-08-06T07:26:20;19.60;99.90
45012;DHT22;63444;48.148;11.542;2023-08-06T07:28:45;19.40;99.90
45012;DHT22;63444;48.148;11.542;2023-08-06T07:31:12;19.10;99.90
45012;DHT22;63444;48.148;11.542;2023-08-06T07:33:38;19.00;99.90
45012;DHT22;63444;48.148;11.542;2023-08-06T07:36:11;18.80;99.90
45012;DHT22;63444;48.148;11.542;2023-08-06T07:38:37;18.60;99.90
45012;DHT22;63444;48.148;11.542;2023-08-06T07:41:03;18.40;99.90
45012;DHT22;63444;48.148;11.542;2023-08-06T07:43:29;18.30;99.90
45012;DHT22;63444;48.148;11.542;2023-08-06T07:45:58;18.20;99.90
45012;DHT22;63444;48.148;11.542;2023-08-06T07:48:26;18.10;99.90
45012;DHT22;63444;48.148;11.542;2023-08-06T07:50:55;18.00;99.90
45012;DHT22;63444;48.148;11.542;2023-08-06T07:53:21;17.80;99.90
45012;DHT22;63444;48.148;11.542;2023-08-06T07:55:52;17.70;99.90
45012;DHT22;63444;48.148;11.542;2023-08-06T07:58:20;17.70;99.90
45012;DHT22;63444;48.148;11.542;2023-08-06T08:00:47;17.60;99.90
45012;DHT22;63444;48.148;11.542;2023-08-06T08:03:13;17.60;99.90
45012;DHT22;63444;48.148;11.542;2023-08-06T08:05:39;17.70;99.90
45012;DHT22;63444;48.148;11.542;2023-08-06T08:08:05;17.80;99.90
45012;DHT22;63444;48.148;11.542;2023-08-06T08:10:32;18.10;99.90
45012;DHT22;63444;48.148;11.542;2023-08-06T08:12:57;18.20;99.90
45012;DHT22;63444;48.148;11.542;2023-08-06T08:15:24;18.40;99.90
45012;DHT22;63444;48.148;11.542;2023-08-06T08:17:52;18.60;99.90
45012;DHT22;63444;48.148;11.542;2023-08-06T08:20:18;18.80;99.90
45012;DHT22;63444;48.148;11.542;2023-08-06T08:22:47;18.90;99.90
45012;DHT22;63444;48.148;11.542;2023-08-06T08:25:15;19.10;99.90
45012;DHT22;63444;48.148;11.542;2023-08-06T08:27:40;19.30;99.90
45012;DHT22;63444;48.148;11.542;2023-08-06T08:30:06;19.50;99.90
45012;DHT22;63444;48.148;11.542;2023-08-06T08:32:34;19.80;99.90
45012;DHT22;63444;48.148;11.542;2023-08-06T08:34:59;20.00;99.90
45012;DHT22;63444;48.148;11.542;2023-08-06T08:37:25;20.20;99.90
45012;DHT22;63444;48.148;11.542;2023-08-06T08:39:52;20.20;99.90
45012;DHT22;63444;48.148;11.542;2023-08-06T08:42:17;20.20;99.90
45012;DHT22;63444;48.148;11.542;2023-08-06T08:44:45;20.10;99.90
45012;DHT22;63444;48.148;11.542;2023-08-06T08:47:13;20.10;99.90
45012;DHT22;63444;48.148;11.542;2023-08-06T08:49:38;19.90;99.90
45012;DHT22;63444;48.148;11.542;2023-08-06T08:52:10;19.60;99.90
45012;DHT22;63444;48.148;11.542;2023-08-06T08:54:41;19.50;99.90
45012;DHT22;63444;48.148;11.542;2023-08-06T08:57:09;19.30;99.90
45012;DHT22;63444;48.148;11.542;2023-08-06T08:59:35;19.30;99.90
45012;DHT22;63444;48.148;11.542;2023-08-06T09:02:02;19.20;99.90
45012;DHT22;63444;48.148;11.542;2023-08-06T09:04:29;19.10;99.90
45012;DHT22;63444;48.148;11.542;2023-08-06T09:06:58;19.00;99.90
45012;DHT22;63444;48.148;11.542;2023-08-06T09:09:31;19.00;99.90
45012;DHT22;63444;48.148;11.542;2023-08-06T09:12:01;18.90;99.90
45012;DHT22;63444;48.148;11.542;2023-08-06T09:14:28;18.90;99.90
45012;DHT22;63444;48.148;11.542;2023-08-06T09:16:54;18.90;99.90
45012;DHT22;63444;48.148;11.542;2023-08-06T09:19:21;18.80;99.90
45012;DHT22;63444;48.148;11.542;2023-08-06T09:21:52;18.80;99.90
45012;DHT22;63444;48.148;11.542;2023-08-06T09:24:18;18.70;99.90
45012;DHT22;63444;48.148;11.542;2023-08-06T09:26:45;18.70;99.90
45012;DHT22;63444;48.148;11.542;2023-08-06T09:29:12;18.70;99.90
45012;DHT22;63444;48.148;11.542;2023-08-06T09:31:46;18.60;99.90
45012;DHT22;63444;48.148;11.542;2023-08-06T09:34:23;18.50;99.90
45012;DHT22;63444;48.148;11.542;2023-08-06T09:36:53;18.40;99.90
45012;DHT22;63444;48.148;11.542;2023-08-06T09:39:21;18.40;99.90
45012;DHT22;63444;48.148;11.542;2023-08-06T09:41:48;18.40;99.90
45012;DHT22;63444;48.148;11.542;2023-08-06T09:44:18;18.40;99.90
45012;DHT22;63444;48.148;11.542;2023-08-06T09:46:50;18.30;99.90
45012;DHT22;63444;48.148;11.542;2023-08-06T09:49:25;18.30;99.90
45012;DHT22;63444;48.148;11.542;2023-08-06T09:51:51;18.30;99.90
45012;DHT22;63444;48.148;11.542;2023-08-06T09:54:19;18.30;99.90
45012;DHT22;63444;48.148;11.542;2023-08-06T09:56:46;18.30;99.90
45012;DHT22;63444;48.148;11.542;2023-08-06T09:59:17;18.20;99.90
45012;DHT22;63444;48.148;11.542;2023-08-06T10:01:46;18.20;99.90
45012;DHT22;63444;48.148;11.542;2023-08-06T10:04:14;18.20;99.90
45012;DHT22;63444;48.148;11.542;2023-08-06T10:06:47;18.30;99.90
45012;DHT22;63444;48.148;11.542;2023-08-06T10:09:16;18.20;99.90
45012;DHT22;63444;48.148;11.542;2023-08-06T10:11:49;18.30;99.90
45012;DHT22;63444;48.148;11.542;2023-08-06T10:14:20;18.30;99.90
45012;DHT22;63444;48.148;11.542;2023-08-06T10:16:47;18.20;99.90
45012;DHT22;63444;48.148;11.542;2023-08-06T10:19:13;18.20;99.90
45012;DHT22;63444;48.148;11.542;2023-08-06T10:21:40;18.20;99.90
45012;DHT22;63444;48.148;11.542;2023-08-06T10:24:08;18.20;99.90
45012;DHT22;63444;48.148;11.542;2023-08-06T10:26:36;18.20;99.90
45012;DHT22;63444;48.148;11.542;2023-08-06T10:29:35;18.20;99.90
45012;DHT22;63444;48.148;11.542;2023-08-06T10:32:05;18.30;99.90
45012;DHT22;63444;48.148;11.542;2023-08-06T10:35:00;18.40;99.90
45012;DHT22;63444;48.148;11.542;2023-08-06T10:37:45;18.50;99.90
45012;DHT22;63444;48.148;11.542;2023-08-06T10:40:20;18.50;99.90
45012;DHT22;63444;48.148;11.542;2023-08-06T10:42:46;18.50;99.90
45012;DHT22;63444;48.148;11.542;2023-08-06T10:45:18;18.40;99.90
45012;DHT22;63444;48.148;11.542;2023-08-06T10:47:45;18.40;99.90
45012;DHT22;63444;48.148;11.542;2023-08-06T10:50:15;18.40;99.90
45012;DHT22;63444;48.148;11.542;2023-08-06T10:52:43;18.50;99.90
45012;DHT22;63444;48.148;11.542;2023-08-06T10:55:09;18.50;99.90
45012;DHT22;63444;48.148;11.542;2023-08-06T10:57:36;18.50;99.90
45012;DHT22;63444;48.148;11.542;2023-08-06T11:00:06;18.50;99.90
45012;DHT22;63444;48.148;11.542;2023-08-06T11:02:36;18.60;99.90
45012;DHT22;63444;48.148;11.542;2023-08-06T11:05:10;18.70;99.90
45012;DHT22;63444;48.148;11.542;2023-08-06T11:07:37;18.70;99.90
45012;DHT22;63444;48.148;11.542;2023-08-06T11:10:08;18.70;99.90
45012;DHT22;63444;48.148;11.542;2023-08-06T11:12:35;18.70;99.90
45012;DHT22;63444;48.148;11.542;2023-08-06T11:15:02;18.70;99.90
45012;DHT22;63444;48.148;11.542;2023-08-06T11:17:32;18.80;99.90
45012;DHT22;63444;48.148;11.542;2023-08-06T11:20:04;18.80;99.90
45012;DHT22;63444;48.148;11.542;2023-08-06T11:22:31;18.80;99.90
45012;DHT22;63444;48.148;11.542;2023-08-06T11:25:00;18.70;99.90
45012;DHT22;63444;48.148;11.542;2023-08-06T11:27:29;18.70;99.90
45012;DHT22;63444;48.148;11.542;2023-08-06T11:29:55;18.60;99.90
45012;DHT22;63444;48.148;11.542;2023-08-06T11:32:22;18.50;99.90
45012;DHT22;63444;48.148;11.542;2023-08-06T11:34:48;18.50;99.90
45012;DHT22;63444;48.148;11.542;2023-08-06T11:37:14;18.60;99.90
45012;DHT22;63444;48.148;11.542;2023-08-06T11:39:46;18.60;99.90
45012;DHT22;63444;48.148;11.542;2023-08-06T11:42:13;18.60;99.90
45012;DHT22;63444;48.148;11.542;2023-08-06T11:44:41;18.60;99.90
45012;DHT22;63444;48.148;11.542;2023-08-06T11:47:13;18.60;99.90
45012;DHT22;63444;48.148;11.542;2023-08-06T11:49:46;18.60;99.90
45012;DHT22;63444;48.148;11.542;2023-08-06T11:52:20;18.60;99.90
45012;DHT22;63444;48.148;11.542;2023-08-06T11:55:11;18.60;99.90
45012;DHT22;63444;48.148;11.542;2023-08-06T11:57:39;18.50;99.90
45012;DHT22;63444;48.148;11.542;2023-08-06T12:00:12;18.60;99.90
45012;DHT22;63444;48.148;11.542;2023-08-06T12:02:42;18.70;99.90
45012;DHT22;63444;48.148;11.542;2023-08-06T12:05:12;18.70;99.90
45012;DHT22;63444;48.148;11.542;2023-08-06T12:07:47;18.70;99.90
45012;DHT22;63444;48.148;11.542;2023-08-06T12:10:14;18.70;99.90
45012;DHT22;63444;48.148;11.542;2023-08-06T12:12:41;18.70;99.90
45012;DHT22;63444;48.148;11.542;2023-08-06T12:15:08;18.70;99.90
45012;DHT22;63444;48.148;11.542;2023-08-06T12:17:34;18.60;99.90
45012;DHT22;63444;48.148;11.542;2023-08-06T12:20:00;18.60;99.90
45012;DHT22;63444;48.148;11.542;2023-08-06T12:22:31;18.60;99.90
45012;DHT22;63444;48.148;11.542;2023-08-06T12:25:02;18.60;99.90
45012;DHT22;63444;48.148;11.542;2023-08-06T12:27:35;18.60;99.90
45012;DHT22;63444;48.148;11.542;2023-08-06T12:30:02;18.60;99.90
45012;DHT22;63444;48.148;11.542;2023-08-06T12:32:29;18.70;99.90
45012;DHT22;63444;48.148;11.542;2023-08-06T12:34:56;18.60;99.90
45012;DHT22;63444;48.148;11.542;2023-08-06T12:37:24;18.60;99.90
45012;DHT22;63444;48.148;11.542;2023-08-06T12:39:49;18.60;99.90
45012;DHT22;63444;48.148;11.542;2023-08-06T12:42:16;18.50;99.90
45012;DHT22;63444;48.148;11.542;2023-08-06T12:44:42;18.50;99.90
45012;DHT22;63444;48.148;11.542;2023-08-06T12:47:08;18.40;99.90
45012;DHT22;63444;48.148;11.542;2023-08-06T12:49:35;18.20;99.90
45012;DHT22;63444;48.148;11.542;2023-08-06T12:52:01;18.20;99.90
45012;DHT22;63444;48.148;11.542;2023-08-06T12:54:27;18.20;99.90
45012;DHT22;63444;48.148;11.542;2023-08-06T12:56:54;18.10;99.90
45012;DHT22;63444;48.148;11.542;2023-08-06T12:59:20;18.00;99.90
45012;DHT22;63444;48.148;11.542;2023-08-06T13:01:48;18.00;99.90
45012;DHT22;63444;48.148;11.542;2023-08-06T13:04:15;18.10;99.90
45012;DHT22;63444;48.148;11.542;2023-08-06T13:06:41;18.10;99.90
45012;DHT22;63444;48.148;11.542;2023-08-06T13:09:07;18.10;99.90
45012;DHT22;63444;48.148;11.542;2023-08-06T13:11:34;18.20;99.90
45012;DHT22;63444;48.148;11.542;2023-08-06T13:14:11;18.20;99.90
45012;DHT22;63444;48.148;11.542;2023-08-06T13:16:39;18.30;99.90
45012;DHT22;63444;48.148;11.542;2023-08-06T13:19:08;18.30;99.90
45012;DHT22;63444;48.148;11.542;2023-08-06T13:24:10;18.30;99.90
45012;DHT22;63444;48.148;11.542;2023-08-06T13:26:35;18.50;99.90
45012;DHT22;63444;48.148;11.542;2023-08-06T13:29:01;18.20;99.90
45012;DHT22;63444;48.148;11.542;2023-08-06T13:31:28;18.20;99.90
45012;DHT22;63444;48.148;11.542;2023-08-06T13:33:54;18.00;99.90
45012;DHT22;63444;48.148;11.542;2023-08-06T13:36:22;18.00;99.90
45012;DHT22;63444;48.148;11.542;2023-08-06T13:38:48;17.80;99.90
45012;DHT22;63444;48.148;11.542;2023-08-06T13:41:13;17.80;99.90
45012;DHT22;63444;48.148;11.542;2023-08-06T13:43:40;17.80;99.90
45012;DHT22;63444;48.148;11.542;2023-08-06T13:46:06;17.80;99.90
45012;DHT22;63444;48.148;11.542;2023-08-06T13:48:32;17.80;99.90
45012;DHT22;63444;48.148;11.542;2023-08-06T13:50:58;17.70;99.90
45012;DHT22;63444;48.148;11.542;2023-08-06T13:53:25;17.60;99.90
45012;DHT22;63444;48.148;11.542;2023-08-06T13:56:24;17.60;99.90
45012;DHT22;63444;48.148;11.542;2023-08-06T13:58:51;17.60;99.90
45012;DHT22;63444;48.148;11.542;2023-08-06T14:01:17;17.50;99.90
45012;DHT22;63444;48.148;11.542;2023-08-06T14:03:46;17.40;99.90
45012;DHT22;63444;48.148;11.542;2023-08-06T14:06:13;17.40;99.90
45012;DHT22;63444;48.148;11.542;2023-08-06T14:08:41;17.40;99.90
45012;DHT22;63444;48.148;11.542;2023-08-06T14:11:07;17.30;99.90
45012;DHT22;63444;48.148;11.542;2023-08-06T14:13:32;17.30;99.90
45012;DHT22;63444;48.148;11.542;2023-08-06T14:15:58;17.30;99.90
45012;DHT22;63444;48.148;11.542;2023-08-06T14:18:24;17.20;99.90
45012;DHT22;63444;48.148;11.542;2023-08-06T14:20:51;17.20;99.90
45012;DHT22;63444;48.148;11.542;2023-08-06T14:23:20;17.20;99.90
45012;DHT22;63444;48.148;11.542;2023-08-06T14:25:47;17.20;99.90
45012;DHT22;63444;48.148;11.542;2023-08-06T14:28:13;17.20;99.90
45012;DHT22;63444;48.148;11.542;2023-08-06T14:30:41;17.10;99.90
45012;DHT22;63444;48.148;11.542;2023-08-06T14:33:07;17.10;99.90
45012;DHT22;63444;48.148;11.542;2023-08-06T14:35:34;17.10;99.90
45012;DHT22;63444;48.148;11.542;2023-08-06T14:38:00;17.00;99.90
45012;DHT22;63444;48.148;11.542;2023-08-06T14:40:26;17.00;99.90
45012;DHT22;63444;48.148;11.542;2023-08-06T14:42:54;16.90;99.90
45012;DHT22;63444;48.148;11.542;2023-08-06T14:45:21;16.80;99.90
45012;DHT22;63444;48.148;11.542;2023-08-06T14:47:47;16.70;99.90
45012;DHT22;63444;48.148;11.542;2023-08-06T14:50:14;16.70;99.90
45012;DHT22;63444;48.148;11.542;2023-08-06T14:52:40;16.60;99.90
45012;DHT22;63444;48.148;11.542;2023-08-06T14:55:07;16.60;99.90
45012;DHT22;63444;48.148;11.542;2023-08-06T14:57:33;16.50;99.90
45012;DHT22;63444;48.148;11.542;2023-08-06T14:59:58;16.50;99.90
45012;DHT22;63444;48.148;11.542;2023-08-06T15:02:25;16.50;99.90
45012;DHT22;63444;48.148;11.542;2023-08-06T15:04:52;16.40;99.90
45012;DHT22;63444;48.148;11.542;2023-08-06T15:07:18;16.40;99.90
45012;DHT22;63444;48.148;11.542;2023-08-06T15:09:44;16.40;99.90
45012;DHT22;63444;48.148;11.542;2023-08-06T15:12:10;16.40;99.90
45012;DHT22;63444;48.148;11.542;2023-08-06T15:14:36;16.40;99.90
45012;DHT22;63444;48.148;11.542;2023-08-06T15:17:02;16.40;99.90
45012;DHT22;63444;48.148;11.542;2023-08-06T15:19:27;16.30;99.90
45012;DHT22;63444;48.148;11.542;2023-08-06T15:21:53;16.40;99.90